Suhinici, Russia
Current Conditions -  °F | °C
As of 9:00 AM on Thursday 27 Nov 2014 (Local Time) from UUBP Reporting Station
Clear Clear  
Wind Chill: -2°   Ceiling: Unl
Heat Index:   Visibility: 6mi
Dew Point:   Wind: 4mph
Humidity: 85%   Direction: 50°NE
Pressure: 30.39"   Gusts: NA
Location:  54.1°N, 35.35°E
Report Text: UUBP 270600Z 05002MPS CAVOK M14/M16 Q1029 NOSIG RMK QFE75434CLRD70
Loading
Personal Weather Stations






























Interactive Weather Map New forecast layout! Learn more

10-Day Weather Forecast

Advertisements
Track Severe Weather on mobile